• Join FlightAware (Why Join?)
  • Login
  • US Flag 
06:28PM EDT


 

Airport Tracker/Info


-or-


 

Live Flight TrackerFlight Track Log ✈ ASA603 ✈ 05-May-2013 ✈ KLAS - KSEA

Flight Track Log - Related Links

Times and Time Zones

All times are in EDT time to prevent confusion due to time zone crossing. See the ASA603 flight status page for this flight to view local times or setup timezone preferences in your user account.

Time Position Orientation Groundspeed Altitude Reporting Facility
EDT Latitude Longitude Course Direction KTS MPH feet Rate Location/Type
09:59AM 36.0761 -115.1789 262° West 188 216 3,100  Level Los Angeles Center
10:00AM 36.0689 -115.2450 262° West 241 277 5,000 1,800 Climbing Los Angeles Center
10:01AM 36.0206 -115.2772 208° Southwest 260 299 6,300 2,160 Climbing Los Angeles Center
10:02AM 35.9594 -115.3233 211° Southwest 272 313 9,100 2,400 Climbing Los Angeles Center
10:03AM 35.9661 -115.4236 275° West 297 342 11,200 2,100 Climbing Los Angeles Center
10:04AM 36.0119 -115.5275 299° West 332 382 13,400 2,340 Climbing Los Angeles Center
10:05AM 36.0706 -115.6517 300° West 381 438 16,000 2,580 Climbing Los Angeles Center
10:06AM 36.1244 -115.7700 299° West 393 452 18,700 2,400 Climbing Los Angeles Center
10:07AM 36.1789 -115.8900 299° West 401 461 20,900 2,040 Climbing Los Angeles Center
10:08AM 36.2350 -116.0131 300° West 410 472 22,900 1,680 Climbing Los Angeles Center
10:09AM 36.2872 -116.1242 300° West 419 482 24,400 1,620 Climbing Los Angeles Center
10:10AM 36.3658 -116.2394 310° West 433 498 26,200 1,560 Climbing Los Angeles Center
10:11AM 36.4633 -116.3361 321° Northwest 447 514 27,600 1,320 Climbing Los Angeles Center
10:12AM 36.5794 -116.4522 321° Northwest 453 521 29,000 1,320 Climbing Los Angeles Center
10:13AM 36.6803 -116.5525 321° Northwest 460 529 30,400 1,380 Climbing Los Angeles Center
10:14AM 36.7789 -116.6536 321° Northwest 459 528 31,900 1,320 Climbing Los Angeles Center
10:15AM 36.8758 -116.7531 321° Northwest 453 521 33,200 1,140 Climbing Los Angeles Center
10:16AM 36.9736 -116.8511 321° Northwest 451 519 34,300 960 Climbing Los Angeles Center
10:17AM 37.0506 -116.9306 321° Northwest 450 518 35,000 900 Climbing Oakland Center
10:18AM 37.1581 -117.0117 329° Northwest 458 527 35,900 780 Climbing Oakland Center
10:18AM 37.1806 -117.0272 331° Northwest 454 522 36,000 60 Climbing Los Angeles Center
10:19AM 37.2978 -117.0900 337° Northwest 458 527 36,000  Level Los Angeles Center
10:20AM 37.3906 -117.1428 336° Northwest 455 524 36,000  Level Oakland Center
10:21AM 37.5050 -117.2081 336° Northwest 451 519 36,000  Level Oakland Center
10:22AM 37.6189 -117.2728 336° Northwest 448 516 36,000  Level Oakland Center
10:22AM 37.6425 -117.2856 337° Northwest 449 517 36,000  Level Los Angeles Center
10:23AM 37.7575 -117.3511 336° Northwest 450 518 36,000  Level Los Angeles Center
10:24AM 37.8489 -117.4033 336° Northwest 449 517 36,000  Level Oakland Center
10:25AM 37.9642 -117.4694 336° Northwest 449 517 36,000  Level Oakland Center
10:26AM 38.0792 -117.5358 336° Northwest 448 516 36,000  Level Oakland Center
10:27AM 38.1936 -117.6022 335° Northwest 445 512 36,000  Level Oakland Center
10:28AM 38.3081 -117.6686 336° Northwest 447 514 36,000  Level Oakland Center
10:29AM 38.4239 -117.7344 336° Northwest 452 520 36,000  Level Oakland Center
10:30AM 38.5397 -117.8042 335° Northwest 456 525 36,000  Level Oakland Center
10:31AM 38.6575 -117.8733 335° Northwest 456 525 36,000  Level Oakland Center
10:32AM 38.7747 -117.9414 336° Northwest 462 532 36,000  Level Oakland Center
10:33AM 38.8922 -118.0119 335° Northwest 466 536 36,000  Level Oakland Center
10:34AM 39.0094 -118.0806 336° Northwest 464 534 36,000  Level Oakland Center
10:35AM 39.1264 -118.1517 335° Northwest 464 534 36,000  Level Oakland Center
10:36AM 39.2422 -118.2214 335° Northwest 463 533 36,000  Level Oakland Center
10:37AM 39.3567 -118.2897 335° Northwest 459 528 36,000  Level Oakland Center
10:38AM 39.4711 -118.3594 335° Northwest 460 529 36,000  Level Oakland Center
10:39AM 39.5847 -118.4261 336° Northwest 456 525 36,000  Level Oakland Center
10:40AM 39.6972 -118.4961 334° Northwest 454 522 36,000  Level Oakland Center
10:41AM 39.8128 -118.5661 335° Northwest 460 529 36,000  Level Oakland Center
10:42AM 39.9519 -118.6503 335° Northwest 462 532 36,000  Level Oakland Center
10:43AM 40.0658 -118.7231 334° Northwest 458 527 36,000  Level Oakland Center
10:44AM 40.1828 -118.7964 334° Northwest 466 536 36,000  Level Oakland Center
10:45AM 40.2964 -118.8658 335° Northwest 453 521 36,000  Level Oakland Center
10:46AM 40.4100 -118.9375 334° Northwest 454 522 36,000  Level Oakland Center
10:47AM 40.5250 -119.0075 335° Northwest 454 522 36,000  Level Oakland Center
10:48AM 40.6389 -119.0797 334° Northwest 455 524 36,000  Level Oakland Center
10:49AM 40.7525 -119.1522 334° Northwest 454 522 36,000  Level Oakland Center
10:50AM 40.8664 -119.2239 335° Northwest 453 521 36,000  Level Oakland Center
10:51AM 40.9764 -119.2953 334° Northwest 457 526 36,000  Level Oakland Center
10:52AM 41.1067 -119.3742 335° Northwest 461 531 36,000  Level Oakland Center
10:53AM 41.1775 -119.4222 333° Northwest 459 528 36,000  Level Seattle Center
10:54AM 41.2906 -119.4964 334° Northwest 455 524 36,000  Level Seattle Center
10:55AM 41.4042 -119.5686 335° Northwest 453 521 36,000  Level Seattle Center
10:56AM 41.5175 -119.6425 334° Northwest 454 522 36,000  Level Seattle Center
10:57AM 41.6367 -119.7128 336° Northwest 464 534 36,000  Level Seattle Center
10:58AM 41.7469 -119.7886 333° Northwest 452 520 36,000  Level Seattle Center
10:59AM 41.8603 -119.8639 334° Northwest 454 522 36,000  Level Seattle Center
11:00AM 41.9733 -119.9378 334° Northwest 453 521 36,000  Level Seattle Center
11:01AM 42.0892 -120.0114 335° Northwest 459 528 36,000  Level Seattle Center
11:02AM 42.2011 -120.0864 334° Northwest 451 519 36,000  Level Seattle Center
11:03AM 42.3164 -120.1628 334° Northwest 461 531 36,000  Level Seattle Center
11:04AM 42.4306 -120.2378 334° Northwest 459 528 36,000  Level Seattle Center
11:05AM 42.5422 -120.3125 334° Northwest 452 520 36,000  Level Seattle Center
11:06AM 42.6564 -120.3883 334° Northwest 457 526 36,000  Level Seattle Center
11:07AM 42.7683 -120.4658 333° Northwest 454 522 36,000  Level Seattle Center
11:08AM 42.8789 -120.5406 334° Northwest 447 514 36,000  Level Seattle Center
11:09AM 43.0133 -120.6306 334° Northwest 448 516 36,000  Level Seattle Center
11:10AM 43.1250 -120.7056 334° Northwest 448 516 36,000  Level Seattle Center
11:11AM 43.2392 -120.7839 333° Northwest 457 526 36,000  Level Seattle Center
11:12AM 43.3544 -120.8617 334° Northwest 461 531 36,000  Level Seattle Center
11:13AM 43.4683 -120.9411 333° Northwest 461 531 36,000  Level Seattle Center
11:14AM 43.5742 -121.0131 334° Northwest 460 529 36,000  Level Seattle Center
11:15AM 43.6889 -121.0936 333° Northwest 462 532 36,000  Level Seattle Center
11:16AM 43.8133 -121.1839 332° Northwest 467 537 36,000  Level Seattle Center
11:17AM 43.9175 -121.2561 333° Northwest 456 525 36,000  Level Seattle Center
11:18AM 44.0289 -121.3342 333° Northwest 450 518 36,000  Level Seattle Center
11:19AM 44.1389 -121.4122 333° Northwest 444 511 36,000  Level Seattle Center
11:20AM 44.2461 -121.4883 333° Northwest 434 499 36,000  Level Seattle Center
11:21AM 44.3744 -121.5794 333° Northwest 430 495 36,000  Level Seattle Center
11:22AM 44.4825 -121.6578 333° Northwest 435 501 36,000  Level Seattle Center
11:23AM 44.5906 -121.7353 333° Northwest 435 501 36,000  Level Seattle Center
11:24AM 44.6967 -121.8125 333° Northwest 431 496 36,000  Level Seattle Center
11:25AM 44.8031 -121.8886 333° Northwest 429 494 36,000  Level Seattle Center
11:26AM 44.9078 -121.9667 332° Northwest 428 493 36,000  Level Seattle Center
11:27AM 45.0119 -122.0444 332° Northwest 428 493 36,000  Level Seattle Center
11:28AM 45.1169 -122.1219 332° Northwest 428 493 36,000  Level Seattle Center
11:29AM 45.2228 -122.1992 333° Northwest 430 495 36,000  Level Seattle Center
11:30AM 45.3267 -122.2756 333° Northwest 426 490 36,000 -240 Level Seattle Center
11:31AM 45.4331 -122.3544 333° Northwest 430 495 35,600 -660 Descending Seattle Center
11:32AM 45.5383 -122.4328 332° Northwest 431 496 34,700 -960 Descending Seattle Center
11:33AM 45.6428 -122.5119 332° Northwest 429 494 33,700 -1,020 Descending Seattle Center
11:34AM 45.7506 -122.5892 333° Northwest 433 498 32,700 -1,020 Descending Seattle Center
11:35AM 45.8633 -122.6178 350° North 422 486 31,700 -1,560 Descending Seattle Center
11:36AM 45.9744 -122.6497 349° North 412 474 29,600 -2,340 Descending Seattle Center
11:37AM 46.1028 -122.6806 351° North 394 453 27,000 -2,220 Descending Seattle Center
11:38AM 46.2008 -122.7006 352° North 384 442 25,100 -1,980 Descending Seattle Center
11:39AM 46.3017 -122.7206 352° North 373 429 23,100 -2,040 Descending Seattle Center
11:40AM 46.3986 -122.7214 360° North 356 410 21,100 -1,920 Descending Seattle Center
11:41AM 46.4928 -122.7172 North 343 395 19,200 -1,920 Descending Seattle Center
11:42AM 46.5883 -122.7136 North 348 400 17,300 -2,040 Descending Seattle Center
11:43AM 46.6636 -122.7097 North 346 398 15,800 -1,980 Descending Seattle Center
11:43AM 46.6825 -122.7089 North 342 394 15,300 -2,100 Descending Seattle Center
11:44AM 46.7622 -122.7053 North 335 386 13,700 -2,220 Descending Seattle Center
11:44AM 46.7914 -122.7042 North 332 382 13,100 -1,740 Descending Seattle Center
11:45AM 46.8478 -122.6658 25° Northeast 303 349 11,800 -1,500 Descending Seattle Center
11:46AM 46.9067 -122.5825 44° Northeast 289 333 10,500 -1,200 Descending Seattle Center
11:47AM 46.9617 -122.5106 42° Northeast 257 296 9,400 -1,440 Descending Seattle Center
11:48AM 47.0242 -122.4506 33° Northeast 257 296 7,700 -1,680 Descending Seattle Center
11:49AM 47.0936 -122.4094 22° Northeast 269 310 6,100 -1,320 Descending Seattle Center
11:50AM 47.1739 -122.3597 23° Northeast 255 293 4,800 -960 Descending Seattle Center
11:51AM 47.2203 -122.3306 23° Northeast 213 245 4,100 -840 Descending Seattle Center
11:52AM 47.2869 -122.3133 10° North 219 252 3,200 -960 Descending Seattle Center
11:53AM 47.3442 -122.3114 North 203 234 2,100 -960 Descending Seattle Center
11:54AM 47.3844 -122.3122 359° North 153 176 1,400 -840 Descending Seattle Center
11:55AM 47.4297 -122.3117 360° North 138 159 500 -540 Descending Seattle Center
11:56AM 47.4614 -122.3114 360° North 138 159 300 -240 Descending Seattle Center